Time;durP1;ratioP1;P1;durP2;ratioP2;P2;SDS_P1;SDS_P2;PMS_P1;PMS_P2;Temp;Humidity;BMP_temperature;BMP_pressure;BME280_temperature;BME280_humidity;BME280_pressure;Samples;Min_cycle;Max_cycle;Signal;HPM_P1;HPM_P2
2022/05/06 00:01:52;;;;;;;51.53;32.25;;;;;;;;;;5042243;28;20421;-67
2022/05/06 00:04:18;;;;;;;47.22;29.95;;;;;;;;;;5035550;28;20453;-67
2022/05/06 00:06:44;;;;;;;48.05;30.48;;;;;;;;;;5033197;28;20423;-68
2022/05/06 00:09:10;;;;;;;45.88;29.35;;;10.90;99.90;;;;;;5038749;28;20812;-67
2022/05/06 00:11:36;;;;;;;43.17;28.35;;;11.00;99.90;;;;;;5037241;28;20496;-68
2022/05/06 00:14:02;;;;;;;45.88;27.52;;;;;;;;;;5017825;28;20830;-67
2022/05/06 00:16:28;;;;;;;42.83;28.30;;;;;;;;;;5035169;28;20441;-67
2022/05/06 00:18:55;;;;;;;42.38;27.13;;;;;;;;;;5039844;28;20418;-67
2022/05/06 00:21:21;;;;;;;42.70;28.10;;;10.40;99.90;;;;;;5039906;28;20606;-67
2022/05/06 00:23:47;;;;;;;52.45;32.03;;;;;;;;;;5039680;28;20427;-67
2022/05/06 00:26:13;;;;;;;49.22;31.35;;;10.20;99.90;;;;;;5038025;28;20414;-66
2022/05/06 00:28:39;;;;;;;46.53;28.95;;;;;;;;;;5037954;28;20460;-67
2022/05/06 00:31:06;;;;;;;44.00;27.55;;;;;;;;;;5041677;28;20426;-67
2022/05/06 00:33:33;;;;;;;42.20;26.73;;;;;;;;;;5038111;28;20498;-67
2022/05/06 00:35:59;;;;;;;37.92;24.90;;;;;;;;;;5036582;28;20530;-67
2022/05/06 00:38:26;;;;;;;39.95;26.50;;;10.20;99.90;;;;;;5035223;28;20427;-66
2022/05/06 00:40:52;;;;;;;39.83;25.92;;;;;;;;;;5036510;28;20447;-66
2022/05/06 00:43:19;;;;;;;42.50;27.47;;;;;;;;;;5039483;28;20816;-66
2022/05/06 00:45:52;;;;;;;43.65;27.58;;;;;;;;;;5039236;28;20429;-66
2022/05/06 00:48:18;;;;;;;40.38;26.98;;;;;;;;;;5041017;28;20400;-66
2022/05/06 00:50:45;;;;;;;42.30;27.15;;;;;;;;;;5035410;28;20494;-66
2022/05/06 00:53:12;;;;;;;42.75;27.13;;;;;;;;;;5040899;28;20485;-66
2022/05/06 00:55:38;;;;;;;42.22;28.08;;;10.40;99.90;;;;;;5039933;28;20411;-67
2022/05/06 00:58:04;;;;;;;45.00;28.43;;;;;;;;;;5036346;28;20497;-67
2022/05/06 01:00:30;;;;;;;44.92;28.00;;;;;;;;;;5036858;28;20427;-66
2022/05/06 01:02:56;;;;;;;45.63;29.15;;;;;;;;;;5039005;28;20434;-66
2022/05/06 01:05:22;;;;;;;46.77;29.13;;;;;;;;;;5039500;28;20423;-66
2022/05/06 01:07:52;;;;;;;45.65;29.85;;;;;;;;;;5032495;28;20429;-67
2022/05/06 01:10:19;;;;;;;46.83;28.67;;;;;;;;;;5032062;28;20457;-67
2022/05/06 01:12:45;;;;;;;48.28;30.05;;;;;;;;;;5031581;28;20436;-67
2022/05/06 01:15:25;;;;;;;47.42;29.70;;;;;;;;;;5005069;28;20434;-66
2022/05/06 01:17:52;;;;;;;48.30;30.15;;;;;;;;;;5039408;28;20780;-66
2022/05/06 01:20:19;;;;;;;51.20;30.90;;;;;;;;;;5035282;28;20447;-66
2022/05/06 01:22:52;;;;;;;48.03;30.67;;;;;;;;;;5040212;28;20415;-67
2022/05/06 01:25:18;;;;;;;50.75;31.35;;;;;;;;;;5035090;28;20442;-66
2022/05/06 01:27:46;;;;;;;52.67;32.70;;;;;;;;;;5038276;28;20415;-66
2022/05/06 01:30:38;;;;;;;49.10;31.48;;;10.00;99.90;;;;;;5037059;28;20459;-67
2022/05/06 01:33:05;;;;;;;50.72;31.58;;;;;;;;;;5036614;28;20443;-67
2022/05/06 01:35:41;;;;;;;52.55;32.85;;;;;;;;;;5038850;28;20475;-67
2022/05/06 01:38:07;;;;;;;52.47;32.67;;;;;;;;;;5035577;28;20419;-66
2022/05/06 01:40:43;;;;;;;56.17;34.75;;;9.80;99.90;;;;;;5037087;28;20427;-67
2022/05/06 01:43:14;;;;;;;53.67;31.88;;;;;;;;;;5036752;28;20474;-65
2022/05/06 01:45:41;;;;;;;51.22;31.70;;;;;;;;;;5036083;28;20423;-65
2022/05/06 01:48:08;;;;;;;48.83;30.33;;;;;;;;;;5037367;28;20530;-66
2022/05/06 01:50:36;;;;;;;44.65;29.77;;;;;;;;;;5036519;28;20422;-66
2022/05/06 01:53:02;;;;;;;46.38;28.35;;;;;;;;;;5037702;28;20431;-66
2022/05/06 01:55:29;;;;;;;43.53;28.52;;;;;;;;;;5035184;28;20419;-67
2022/05/06 01:57:55;;;;;;;41.85;26.95;;;;;;;;;;5037646;28;20427;-66
2022/05/06 02:00:21;;;;;;;45.58;27.48;;;9.80;99.90;;;;;;5037966;28;20779;-66
2022/05/06 02:02:47;;;;;;;41.78;27.55;;;;;;;;;;5036722;28;20434;-66
2022/05/06 02:05:20;;;;;;;41.60;27.88;;;;;;;;;;5034899;28;20427;-66
2022/05/06 02:07:48;;;;;;;45.13;28.05;;;;;;;;;;5051421;28;20442;-67
2022/05/06 02:10:14;;;;;;;46.55;27.23;;;;;;;;;;5038691;28;20427;-66
2022/05/06 02:12:40;;;;;;;53.00;30.33;;;;;;;;;;5034169;28;20438;-66
2022/05/06 02:15:07;;;;;;;53.37;32.03;;;;;;;;;;5038439;28;20938;-67
2022/05/06 02:17:33;;;;;;;54.38;31.52;;;9.60;99.90;;;;;;5034656;28;20922;-66
2022/05/06 02:19:59;;;;;;;54.30;31.90;;;;;;;;;;5036814;28;20431;-67
2022/05/06 02:22:27;;;;;;;46.60;30.38;;;;;;;;;;5038228;28;20423;-67
2022/05/06 02:24:55;;;;;;;46.58;28.90;;;;;;;;;;5035038;28;20502;-67
2022/05/06 02:27:21;;;;;;;52.13;29.48;;;;;;;;;;5031513;28;20435;-67
2022/05/06 02:35:17;;;;;;;51.72;32.25;;;;;;;;;;5028024;28;20540;-68
2022/05/06 02:37:43;;;;;;;49.30;30.52;;;;;;;;;;5034120;28;20458;-67
2022/05/06 02:40:10;;;;;;;49.22;29.58;;;;;;;;;;5039867;28;20412;-67
2022/05/06 02:42:36;;;;;;;46.08;28.58;;;9.30;99.90;;;;;;5035431;28;21340;-67
2022/05/06 02:45:02;;;;;;;47.35;29.15;;;;;;;;;;5049364;28;20441;-67
2022/05/06 02:47:30;;;;;;;47.05;27.98;;;;;;;;;;5037219;28;20442;-66
2022/05/06 02:49:57;;;;;;;48.30;28.58;;;;;;;;;;5049516;28;20435;-68
2022/05/06 02:52:23;;;;;;;57.40;32.03;;;;;;;;;;5038594;28;20457;-67
2022/05/06 02:54:49;;;;;;;60.80;32.83;;;;;;;;;;5034236;28;20490;-67
2022/05/06 02:57:15;;;;;;;72.53;34.97;;;;;;;;;;5025827;28;20423;-67
2022/05/06 02:59:41;;;;;;;112.25;35.25;;;9.00;99.90;;;;;;5034055;28;20490;-68
2022/05/06 03:02:07;;;;;;;186.50;41.77;;;;;;;;;;5038310;28;20477;-67
2022/05/06 03:04:33;;;;;;;245.55;40.55;;;8.80;99.90;;;;;;5035174;28;20426;-67
2022/05/06 03:07:00;;;;;;;104.25;41.45;;;;;;;;;;5037292;28;20411;-67
2022/05/06 03:09:26;;;;;;;84.40;40.85;;;;;;;;;;5038181;28;20480;-67
2022/05/06 03:11:52;;;;;;;410.20;51.70;;;;;;;;;;5036571;28;20922;-67
2022/05/06 03:14:19;;;;;;;503.00;58.22;;;;;;;;;;5030677;28;20891;-68
2022/05/06 03:16:45;;;;;;;615.53;67.70;;;;;;;;;;5032987;28;20433;-67
2022/05/06 03:19:11;;;;;;;409.13;55.57;;;9.10;99.90;;;;;;5038106;28;20423;-67
2022/05/06 03:21:37;;;;;;;395.70;58.13;;;9.20;99.90;;;;;;5037700;28;20446;-66
2022/05/06 03:24:03;;;;;;;333.33;54.70;;;;;;;;;;5018137;28;20446;-67
2022/05/06 03:26:29;;;;;;;157.32;51.47;;;;;;;;;;5037650;28;20454;-67
2022/05/06 03:28:58;;;;;;;347.95;55.67;;;;;;;;;;5034986;28;20927;-67
2022/05/06 03:31:27;;;;;;;173.77;49.45;;;;;;;;;;5036840;28;20455;-66
2022/05/06 03:33:54;;;;;;;545.22;63.33;;;;;;;;;;5033669;28;20970;-67
2022/05/06 03:36:24;;;;;;;481.48;67.28;;;;;;;;;;5037575;28;20454;-68
2022/05/06 03:38:50;;;;;;;135.48;52.13;;;;;;;;;;5037064;28;20430;-67
2022/05/06 03:41:16;;;;;;;156.55;51.70;;;;;;;;;;5035021;28;20438;-67
2022/05/06 03:43:43;;;;;;;235.25;49.90;;;;;;;;;;5037585;28;20427;-67
2022/05/06 03:46:08;;;;;;;201.88;48.70;;;9.70;99.90;;;;;;5033688;28;20869;-66
2022/05/06 03:48:35;;;;;;;139.53;45.10;;;;;;;;;;5039866;28;20461;-67
2022/05/06 03:53:53;;;;;;;326.92;54.17;;;9.50;99.90;;;;;;5039717;28;20502;-68
2022/05/06 03:56:19;;;;;;;254.70;52.03;;;;;;;;;;5054875;28;20419;-66
2022/05/06 03:58:45;;;;;;;250.93;52.85;;;9.90;99.90;;;;;;5039027;28;20423;-66
2022/05/06 04:01:12;;;;;;;280.00;57.17;;;;;;;;;;5037823;28;20895;-67
2022/05/06 04:03:38;;;;;;;338.42;59.95;;;;;;;;;;5037395;28;20427;-67
2022/05/06 04:06:05;;;;;;;259.83;57.60;;;;;;;;;;5039948;28;20427;-67
2022/05/06 04:08:32;;;;;;;423.67;61.10;;;9.80;99.90;;;;;;5039500;28;20566;-67
2022/05/06 04:10:58;;;;;;;418.10;59.10;;;;;;;;;;5038350;28;20700;-67
2022/05/06 04:13:24;;;;;;;434.90;61.97;;;9.80;99.90;;;;;;5038502;28;20433;-67
2022/05/06 04:15:50;;;;;;;294.73;57.83;;;;;;;;;;5038077;28;21007;-68
2022/05/06 04:18:17;;;;;;;365.48;58.25;;;;;;;;;;5039780;28;20427;-67
2022/05/06 04:23:32;;;;;;;333.10;56.83;;;;;;;;;;5039781;28;20431;-68
2022/05/06 04:26:08;;;;;;;347.67;56.63;;;10.00;99.90;;;;;;5039403;28;20841;-66
2022/05/06 04:28:35;;;;;;;337.80;57.63;;;;;;;;;;5037049;28;20427;-67
2022/05/06 04:31:01;;;;;;;346.90;59.13;;;;;;;;;;5056424;28;20415;-68
2022/05/06 04:33:27;;;;;;;383.13;59.20;;;;;;;;;;5037056;28;20442;-67
2022/05/06 04:35:54;;;;;;;358.95;59.55;;;;;;;;;;5039794;28;20407;-67
2022/05/06 04:38:22;;;;;;;323.80;57.13;;;;;;;;;;5035651;28;20457;-67
2022/05/06 04:40:48;;;;;;;432.50;62.07;;;;;;;;;;5040753;28;20453;-67
2022/05/06 04:43:17;;;;;;;382.27;57.03;;;;;;;;;;5039242;28;20438;-66
2022/05/06 04:45:44;;;;;;;274.77;51.08;;;;;;;;;;5038323;28;20427;-67
2022/05/06 04:48:11;;;;;;;382.27;50.10;;;;;;;;;;5037091;28;20431;-67
2022/05/06 04:50:41;;;;;;;399.42;53.15;;;;;;;;;;5037273;28;20466;-68
2022/05/06 04:53:09;;;;;;;290.98;46.83;;;9.90;99.90;;;;;;5039037;28;20846;-67
2022/05/06 04:55:35;;;;;;;312.83;41.80;;;9.80;99.90;;;;;;5037691;28;20423;-67
2022/05/06 04:58:02;;;;;;;288.13;40.85;;;;;;;;;;5037437;28;20433;-67
2022/05/06 05:00:29;;;;;;;269.13;39.57;;;;;;;;;;5038640;28;20430;-67
2022/05/06 05:02:55;;;;;;;306.23;42.35;;;;;;;;;;5037682;28;20423;-67
2022/05/06 05:05:21;;;;;;;381.30;46.17;;;;;;;;;;5040627;28;20426;-68
2022/05/06 05:07:47;;;;;;;220.38;42.97;;;;;;;;;;5033664;28;20465;-67
2022/05/06 05:10:13;;;;;;;228.03;45.57;;;;;;;;;;5039314;28;20488;-67
2022/05/06 05:12:40;;;;;;;283.00;45.53;;;;;;;;;;5052725;28;20439;-67
2022/05/06 05:15:06;;;;;;;287.90;46.13;;;;;;;;;;5038866;28;20430;-67
2022/05/06 05:17:32;;;;;;;348.67;47.63;;;9.80;99.90;;;;;;5039013;28;20426;-67
2022/05/06 05:19:58;;;;;;;233.52;45.95;;;;;;;;;;5037070;28;20543;-67
2022/05/06 05:22:25;;;;;;;263.00;45.47;;;;;;;;;;5039446;28;20666;-67
2022/05/06 05:24:51;;;;;;;237.17;45.37;;;;;;;;;;5036100;28;20526;-67
2022/05/06 05:27:17;;;;;;;291.25;48.90;;;;;;;;;;5039186;28;20494;-67
2022/05/06 05:29:44;;;;;;;249.23;47.83;;;;;;;;;;5033927;28;20535;-67
2022/05/06 05:32:10;;;;;;;228.38;49.35;;;;;;;;;;5040880;28;20427;-67
2022/05/06 05:34:36;;;;;;;256.20;51.83;;;10.20;99.90;;;;;;5037520;28;20434;-66
2022/05/06 05:37:02;;;;;;;356.80;58.87;;;;;;;;;;5036321;28;20419;-67
2022/05/06 05:39:31;;;;;;;235.98;54.42;;;;;;;;;;5035482;28;20485;-68
2022/05/06 05:41:57;;;;;;;397.13;63.97;;;;;;;;;;5036921;28;20842;-66
2022/05/06 05:49:52;;;;;;;272.30;51.40;;;;;;;;;;5018343;28;20935;-66
2022/05/06 05:52:18;;;;;;;307.65;53.90;;;;;;;;;;5040129;28;20423;-66
2022/05/06 05:54:44;;;;;;;259.13;52.88;;;;;;;;;;5033833;28;20454;-67
2022/05/06 05:57:11;;;;;;;290.05;54.03;;;;;;;;;;5039655;28;20403;-67
2022/05/06 05:59:38;;;;;;;371.30;58.55;;;;;;;;;;5033694;28;20449;-67
2022/05/06 06:02:04;;;;;;;298.30;56.13;;;;;;;;;;5038439;28;20914;-67
2022/05/06 06:04:30;;;;;;;393.25;60.08;;;;;;;;;;5037205;28;20438;-67
2022/05/06 06:06:57;;;;;;;260.95;55.03;;;;;;;;;;5037475;28;20482;-67
2022/05/06 06:09:24;;;;;;;223.15;54.63;;;;;;;;;;5037073;28;20429;-67
2022/05/06 06:11:50;;;;;;;222.73;56.80;;;;;;;;;;5036681;28;20423;-67
2022/05/06 06:14:17;;;;;;;206.35;51.72;;;;;;;;;;5038702;28;20454;-67
2022/05/06 06:16:43;;;;;;;190.15;50.00;;;;;;;;;;5033736;28;20415;-67
2022/05/06 06:19:10;;;;;;;189.25;47.60;;;;;;;;;;5038806;28;20426;-66
2022/05/06 06:21:36;;;;;;;146.18;45.17;;;11.00;99.90;;;;;;5038528;28;20422;-66
2022/05/06 06:24:02;;;;;;;198.60;47.80;;;;;;;;;;5036619;28;20502;-66
2022/05/06 06:26:27;;;;;;;160.15;46.08;;;11.60;99.90;;;;;;5037015;28;20423;-66
2022/05/06 06:28:54;;;;;;;124.07;43.42;;;11.40;99.90;;;;;;5048565;28;20907;-66
2022/05/06 06:31:20;;;;;;;140.48;44.15;;;;;;;;;;5038388;28;20957;-67
2022/05/06 06:33:47;;;;;;;119.05;41.33;;;;;;;;;;5034907;28;20426;-65
2022/05/06 06:36:13;;;;;;;121.00;41.63;;;;;;;;;;5050465;28;20411;-65
2022/05/06 06:38:39;;;;;;;101.27;37.37;;;11.30;99.90;;;;;;5034312;28;20434;-64
2022/05/06 06:41:05;;;;;;;112.77;39.33;;;11.40;99.90;;;;;;5038657;28;20422;-65
2022/05/06 06:43:31;;;;;;;101.30;38.37;;;;;;;;;;5030685;28;20427;-66
2022/05/06 06:45:57;;;;;;;95.57;37.22;;;;;;;;;;5036671;28;20434;-66
2022/05/06 06:48:25;;;;;;;71.22;34.47;;;;;;;;;;5033287;28;20521;-65
2022/05/06 06:50:52;;;;;;;72.72;32.55;;;;;;;;;;5037441;28;20387;-65
2022/05/06 06:53:19;;;;;;;70.13;32.42;;;;;;;;;;5033916;28;20427;-65
2022/05/06 06:55:45;;;;;;;65.37;31.10;;;;;;;;;;5028836;28;20430;-66
2022/05/06 06:58:11;;;;;;;57.88;28.77;;;;;;;;;;5037266;28;20430;-66
2022/05/06 07:00:37;;;;;;;54.42;26.27;;;;;;;;;;5036421;28;20450;-65
2022/05/06 07:03:04;;;;;;;58.08;27.45;;;;;;;;;;5035970;28;20415;-66
2022/05/06 07:05:30;;;;;;;59.00;27.08;;;;;;;;;;5034441;28;20438;-66
2022/05/06 07:13:28;;;;;;;50.33;24.48;;;;;;;;;;5037428;28;20795;-66
2022/05/06 07:15:54;;;;;;;44.08;23.95;;;;;;;;;;5025552;28;20465;-66
2022/05/06 07:18:20;;;;;;;41.85;22.27;;;;;;;;;;5034633;28;20945;-66
2022/05/06 07:20:46;;;;;;;39.33;21.15;;;12.10;99.90;;;;;;5030710;28;20435;-67
2022/05/06 07:23:12;;;;;;;31.55;18.45;;;;;;;;;;5039635;28;20607;-66
2022/05/06 07:25:38;;;;;;;24.40;15.93;;;;;;;;;;5036275;28;20533;-67
2022/05/06 07:28:04;;;;;;;25.35;16.88;;;;;;;;;;5042225;28;20422;-66
2022/05/06 07:30:30;;;;;;;24.50;16.00;;;12.50;99.90;;;;;;5042433;28;20413;-67
2022/05/06 07:32:56;;;;;;;22.83;15.23;;;;;;;;;;5040514;28;20475;-67
2022/05/06 07:35:22;;;;;;;24.23;15.68;;;;;;;;;;5041747;28;20419;-67
2022/05/06 07:37:49;;;;;;;23.08;14.82;;;;;;;;;;5040568;28;20415;-67
2022/05/06 07:40:15;;;;;;;22.60;15.40;;;;;;;;;;5043468;28;20403;-66
2022/05/06 07:42:42;;;;;;;19.15;13.90;;;12.40;99.90;;;;;;5040323;28;20450;-65
2022/05/06 07:45:10;;;;;;;17.75;13.57;;;;;;;;;;5038516;28;20802;-66
2022/05/06 07:47:36;;;;;;;15.40;11.90;;;;;;;;;;5056273;28;20446;-65
2022/05/06 07:50:02;;;;;;;13.30;10.07;;;;;;;;;;5039793;28;20435;-66
2022/05/06 07:52:28;;;;;;;12.88;9.32;;;;;;;;;;5036377;28;20881;-66
2022/05/06 07:54:54;;;;;;;11.35;9.07;;;;;;;;;;5035937;28;20418;-66
2022/05/06 07:57:20;;;;;;;11.60;9.07;;;;;;;;;;5038298;28;20890;-66
2022/05/06 07:59:46;;;;;;;12.27;9.18;;;;;;;;;;5038205;28;20419;-66
2022/05/06 08:04:57;;;;;;;9.95;8.20;;;;;;;;;;5040503;28;20441;-66
2022/05/06 08:07:24;;;;;;;10.07;8.50;;;;;;;;;;5021247;28;20438;-66
2022/05/06 08:09:50;;;;;;;10.00;8.52;;;;;;;;;;5032076;28;20505;-66
2022/05/06 08:12:16;;;;;;;9.95;8.43;;;;;;;;;;5036622;28;20458;-66
2022/05/06 08:14:44;;;;;;;10.90;8.70;;;;;;;;;;5040743;28;20430;-67
2022/05/06 08:17:11;;;;;;;9.52;8.15;;;14.50;99.90;;;;;;5040934;28;21094;-66
2022/05/06 08:19:37;;;;;;;10.07;8.48;;;;;;;;;;5038937;28;20431;-66
2022/05/06 08:22:05;;;;;;;11.33;8.83;;;;;;;;;;5039071;28;20455;-65
2022/05/06 08:24:31;;;;;;;9.30;7.93;;;;;;;;;;5036983;28;20430;-66
2022/05/06 08:26:57;;;;;;;9.77;8.45;;;;;;;;;;5042116;28;20410;-67
2022/05/06 08:29:23;;;;;;;9.87;7.80;;;;;;;;;;5038874;28;20861;-67
2022/05/06 08:31:50;;;;;;;9.55;8.02;;;14.90;99.90;;;;;;5038668;28;20431;-67
2022/05/06 08:34:17;;;;;;;9.50;8.13;;;;;;;;;;5039411;28;20454;-66
2022/05/06 08:36:44;;;;;;;9.93;8.30;;;;;;;;;;5041057;28;20949;-67
2022/05/06 08:39:11;;;;;;;10.60;7.73;;;;;;;;;;5040971;28;20451;-66
2022/05/06 08:41:38;;;;;;;9.43;7.78;;;;;;;;;;5036634;28;20431;-66
2022/05/06 08:52:25;;;;;;;10.35;9.13;;;;;;;;;;5029715;28;20830;-66
2022/05/06 08:54:51;;;;;;;10.32;9.02;;;;;;;;;;5038541;28;20411;-65
2022/05/06 08:57:18;;;;;;;10.07;8.40;;;;;;;;;;5035896;28;20434;-66
2022/05/06 08:59:49;;;;;;;11.25;8.75;;;;;;;;;;5037715;28;20415;-66
2022/05/06 09:02:16;;;;;;;8.30;7.40;;;;;;;;;;5035876;28;20431;-66
2022/05/06 09:04:42;;;;;;;8.30;7.43;;;;;;;;;;5038067;28;20426;-66
2022/05/06 09:07:17;;;;;;;7.82;6.85;;;;;;;;;;5037659;28;20399;-66
2022/05/06 09:09:44;;;;;;;8.60;7.70;;;;;;;;;;5037037;28;20426;-67
2022/05/06 09:17:49;;;;;;;8.55;7.20;;;;;;;;;;5030219;28;20420;-67
2022/05/06 09:20:19;;;;;;;8.50;7.60;;;;;;;;;;5037013;28;20419;-66
2022/05/06 09:22:47;;;;;;;8.77;7.70;;;16.00;99.90;;;;;;5037208;28;20444;-67
2022/05/06 09:25:33;;;;;;;10.10;8.20;;;;;;;;;;5037073;28;20407;-67
2022/05/06 09:27:59;;;;;;;8.87;7.40;;;;;;;;;;5034264;28;20419;-66
2022/05/06 09:30:25;;;;;;;8.70;7.80;;;;;;;;;;5039360;28;20403;-65
2022/05/06 09:32:51;;;;;;;8.02;7.20;;;;;;;;;;5037306;28;20437;-66
2022/05/06 09:35:18;;;;;;;7.90;7.10;;;;;;;;;;5021535;28;20411;-66
2022/05/06 09:37:48;;;;;;;8.70;7.25;;;;;;;;;;5033153;28;20510;-66
2022/05/06 09:40:15;;;;;;;7.55;6.57;;;;;;;;;;5037494;28;20478;-67
2022/05/06 09:42:53;;;;;;;7.50;6.20;;;17.30;99.90;;;;;;5035678;28;21132;-66
2022/05/06 09:45:29;;;;;;;7.87;6.10;;;;;;;;;;5036865;28;20425;-66
2022/05/06 09:47:58;;;;;;;9.20;6.15;;;;;;;;;;5034655;28;20490;-66
2022/05/06 09:50:38;;;;;;;8.18;6.22;;;18.10;99.90;;;;;;5036576;28;20427;-66
2022/05/06 09:53:08;;;;;;;9.55;6.82;;;18.20;99.90;;;;;;5036774;28;20431;-66
2022/05/06 09:55:35;;;;;;;8.00;6.60;;;;;;;;;;5036937;28;20399;-66
2022/05/06 09:58:01;;;;;;;8.02;6.38;;;;;;;;;;5036318;28;20425;-66
2022/05/06 10:00:28;;;;;;;6.30;5.43;;;;;;;;;;5037614;28;20441;-66
2022/05/06 10:02:54;;;;;;;6.75;5.85;;;;;;;;;;5034280;28;20430;-66
2022/05/06 10:05:21;;;;;;;8.38;6.05;;;;;;;;;;5038597;28;20411;-67
2022/05/06 10:07:47;;;;;;;9.43;6.38;;;18.80;99.90;;;;;;5034170;28;20423;-66
2022/05/06 10:10:23;;;;;;;6.35;5.30;;;18.60;99.90;;;;;;5038550;28;20399;-67
2022/05/06 10:13:00;;;;;;;7.30;6.10;;;;;;;;;;5033238;28;20434;-66
2022/05/06 10:15:28;;;;;;;7.22;6.47;;;;;;;;;;5035350;28;20791;-66
2022/05/06 10:17:55;;;;;;;6.77;5.93;;;;;;;;;;5037962;28;20411;-66
2022/05/06 10:20:36;;;;;;;8.55;5.90;;;;;;;;;;5033948;28;20423;-66
2022/05/06 10:23:07;;;;;;;8.57;5.20;;;;;;;;;;5031997;28;20499;-68
2022/05/06 10:25:42;;;;;;;6.28;4.43;;;19.10;99.90;;;;;;5015924;28;20475;-67
2022/05/06 10:34:10;;;;;;;7.80;5.13;;;;;;;;;;5032963;28;20438;-67
2022/05/06 10:36:45;;;;;;;6.85;5.50;;;19.20;99.90;;;;;;5036509;28;20411;-67
2022/05/06 10:39:21;;;;;;;5.57;4.80;;;;;;;;;;5036327;28;20473;-67
2022/05/06 10:42:00;;;;;;;5.40;4.82;;;;;;;;;;5033035;28;21068;-68
2022/05/06 10:44:39;;;;;;;6.50;4.15;;;;;;;;;;5033714;28;20534;-68
2022/05/06 10:47:25;;;;;;;10.65;6.85;;;;;;;;;;5031855;28;20477;-67
2022/05/06 10:49:52;;;;;;;5.90;4.80;;;19.50;99.90;;;;;;5035052;28;21244;-68
2022/05/06 10:52:32;;;;;;;7.00;3.97;;;;;;;;;;5024436;28;20437;-68
2022/05/06 10:55:00;;;;;;;6.97;3.70;;;;;;;;;;5015879;28;20429;-67
2022/05/06 10:57:27;;;;;;;5.50;4.22;;;19.90;99.90;;;;;;5020801;28;20411;-67
2022/05/06 11:00:02;;;;;;;5.55;3.97;;;19.70;99.90;;;;;;5034109;28;20423;-66
2022/05/06 11:02:30;;;;;;;6.47;3.88;;;19.60;99.90;;;;;;5035868;28;21052;-67
2022/05/06 11:05:04;;;;;;;5.88;3.50;;;19.70;99.90;;;;;;5034039;28;20438;-67
2022/05/06 11:07:32;;;;;;;4.85;3.10;;;;;;;;;;5033413;28;20454;-66
2022/05/06 11:09:59;;;;;;;5.22;3.05;;;19.70;99.90;;;;;;5036412;28;20501;-68
2022/05/06 11:12:28;;;;;;;5.50;4.20;;;;;;;;;;5035566;28;20435;-67
2022/05/06 11:15:04;;;;;;;6.87;3.80;;;;;;;;;;5034180;28;20478;-67
2022/05/06 11:17:33;;;;;;;5.37;3.80;;;;;;;;;;5033405;28;20471;-66
2022/05/06 11:20:04;;;;;;;6.00;3.53;;;;;;;;;;5037131;28;20450;-67
2022/05/06 11:22:33;;;;;;;6.97;3.90;;;;;;;;;;5036144;28;20790;-67
2022/05/06 11:25:00;;;;;;;6.43;3.85;;;;;;;;;;5035104;28;20419;-67
2022/05/06 11:27:27;;;;;;;5.20;4.03;;;;;;;;;;5030168;28;20531;-67
2022/05/06 11:29:57;;;;;;;6.65;4.15;;;;;;;;;;5032087;28;20465;-67
2022/05/06 11:32:29;;;;;;;5.05;3.80;;;20.60;99.90;;;;;;5030763;28;20434;-68
2022/05/06 11:35:01;;;;;;;5.80;3.92;;;20.70;99.90;;;;;;5036853;28;20501;-68
2022/05/06 11:37:33;;;;;;;4.82;3.10;;;20.50;99.90;;;;;;5024532;28;20813;-69
2022/05/06 11:42:45;;;;;;;6.80;3.78;;;20.60;99.90;;;;;;5031533;28;20486;-66
2022/05/06 11:48:07;;;;;;;6.85;3.80;;;20.50;99.90;;;;;;5034899;28;20459;-67
2022/05/06 11:50:34;;;;;;;5.30;4.30;;;21.00;99.90;;;;;;5036091;28;20485;-67
2022/05/06 11:53:05;;;;;;;5.10;3.13;;;20.90;99.90;;;;;;5027639;28;20430;-68
2022/05/06 11:55:31;;;;;;;5.30;3.00;;;21.10;99.90;;;;;;5028318;28;20426;-67
2022/05/06 11:57:57;;;;;;;6.40;3.67;;;21.20;99.90;;;;;;5028815;28;20422;-67
2022/05/06 12:00:25;;;;;;;6.82;3.80;;;21.40;99.90;;;;;;5018300;28;20423;-66
2022/05/06 12:02:51;;;;;;;6.10;4.20;;;21.50;99.90;;;;;;5030020;28;20431;-67
2022/05/06 12:05:18;;;;;;;5.88;4.00;;;;;;;;;;5034527;28;20522;-68
2022/05/06 12:07:45;;;;;;;8.07;3.70;;;;;;;;;;5030148;28;20530;-67
2022/05/06 12:10:24;;;;;;;4.70;4.00;;;21.00;99.90;;;;;;5030972;28;20427;-67
2022/05/06 12:13:04;;;;;;;6.75;4.93;;;21.00;99.90;;;;;;5030635;28;20434;-67
2022/05/06 12:15:33;;;;;;;6.40;4.45;;;;;;;;;;5026831;28;20674;-67
2022/05/06 12:18:06;;;;;;;7.60;4.75;;;21.30;99.90;;;;;;5034413;28;20446;-68
2022/05/06 12:20:41;;;;;;;6.53;4.80;;;21.50;99.90;;;;;;5034216;28;20441;-68
2022/05/06 12:23:08;;;;;;;7.40;4.63;;;21.60;99.90;;;;;;5032619;28;20480;-67
2022/05/06 12:25:35;;;;;;;5.88;4.30;;;22.10;99.90;;;;;;5030120;28;20438;-67
2022/05/06 12:28:09;;;;;;;7.07;4.28;;;22.40;99.90;;;;;;5029439;28;20423;-67
2022/05/06 12:30:37;;;;;;;5.32;4.30;;;22.00;99.90;;;;;;5028529;28;20423;-68
2022/05/06 12:33:12;;;;;;;5.88;4.43;;;21.20;99.90;;;;;;5006231;28;20465;-67
2022/05/06 12:35:57;;;;;;;6.72;5.28;;;20.90;99.90;;;;;;5034717;28;20979;-67
2022/05/06 12:38:24;;;;;;;7.20;4.47;;;20.60;99.90;;;;;;5026509;28;20431;-67
2022/05/06 12:40:51;;;;;;;6.53;4.55;;;20.90;99.90;;;;;;5035788;28;20423;-67
2022/05/06 12:43:24;;;;;;;5.53;4.20;;;21.30;99.90;;;;;;5032843;28;20427;-67
2022/05/06 12:46:00;;;;;;;4.95;3.50;;;21.20;99.90;;;;;;5028680;28;20425;-68
2022/05/06 12:51:10;;;;;;;4.93;4.00;;;;;;;;;;5031099;28;20455;-67
2022/05/06 12:53:36;;;;;;;5.28;3.40;;;20.90;99.90;;;;;;5032172;28;21000;-68
2022/05/06 12:56:03;;;;;;;5.15;3.13;;;21.30;99.90;;;;;;5031576;28;20797;-68
2022/05/06 12:58:30;;;;;;;5.10;3.20;;;21.00;99.90;;;;;;5026553;28;20478;-67
2022/05/06 13:01:00;;;;;;;5.78;3.50;;;21.10;99.90;;;;;;5011755;28;20485;-67
2022/05/06 13:03:26;;;;;;;5.33;3.50;;;21.70;99.90;;;;;;5028822;28;20517;-66
2022/05/06 13:05:56;;;;;;;5.22;3.05;;;21.30;99.90;;;;;;5028816;28;20443;-67
2022/05/06 13:08:24;;;;;;;5.17;3.07;;;21.30;99.90;;;;;;5027374;28;20454;-66
2022/05/06 13:10:50;;;;;;;5.40;3.30;;;21.60;99.90;;;;;;5030362;28;20437;-67
2022/05/06 13:13:16;;;;;;;5.60;3.00;;;21.30;99.90;;;;;;5033710;28;20530;-66
2022/05/06 13:15:42;;;;;;;5.93;3.20;;;21.40;99.90;;;;;;5034201;28;20441;-66
2022/05/06 13:18:08;;;;;;;5.43;3.40;;;21.60;99.90;;;;;;5031542;28;20537;-66
2022/05/06 13:20:34;;;;;;;5.28;3.50;;;21.70;99.90;;;;;;4997713;28;20431;-66
2022/05/06 13:23:00;;;;;;;4.90;3.08;;;22.00;99.90;;;;;;5028708;28;20496;-66
2022/05/06 13:25:26;;;;;;;5.20;3.30;;;22.70;99.90;;;;;;5016753;28;20423;-66
2022/05/06 13:27:52;;;;;;;6.13;4.22;;;22.70;99.90;;;;;;5031989;28;20419;-66
2022/05/06 13:30:18;;;;;;;5.80;4.22;;;22.90;99.90;;;;;;5028402;28;20430;-66
2022/05/06 13:32:43;;;;;;;9.60;5.80;;;22.40;99.90;;;;;;5029994;28;20430;-68
2022/05/06 13:35:09;;;;;;;8.70;5.50;;;22.10;99.90;;;;;;5027290;28;20461;-65
2022/05/06 13:37:35;;;;;;;9.40;5.53;;;22.00;99.90;;;;;;5034619;28;20472;-66
2022/05/06 13:40:01;;;;;;;8.57;6.22;;;22.00;99.90;;;;;;5031246;28;20516;-66
2022/05/06 13:42:26;;;;;;;8.25;5.97;;;21.90;99.90;;;;;;5029819;28;20442;-66
2022/05/06 13:44:52;;;;;;;8.75;6.88;;;22.20;99.90;;;;;;5031958;28;20438;-66
2022/05/06 13:47:18;;;;;;;11.40;7.77;;;22.00;99.90;;;;;;5033892;28;20942;-66
2022/05/06 13:49:44;;;;;;;10.53;7.30;;;21.90;99.90;;;;;;5032476;28;20415;-66
2022/05/06 13:52:13;;;;;;;9.50;7.18;;;21.60;99.90;;;;;;5033848;28;20500;-66
2022/05/06 13:54:39;;;;;;;11.95;7.75;;;21.60;99.90;;;;;;5025161;28;20427;-66
2022/05/06 13:59:49;;;;;;;9.67;7.50;;;21.40;99.90;;;;;;5024764;28;20452;-65
2022/05/06 14:02:15;;;;;;;11.83;7.77;;;21.60;99.90;;;;;;5029255;28;20475;-66
2022/05/06 14:04:41;;;;;;;11.80;8.60;;;21.40;99.90;;;;;;5026333;28;20430;-65
2022/05/06 14:07:07;;;;;;;11.90;8.27;;;21.10;99.90;;;;;;5027564;28;20466;-65
2022/05/06 14:09:35;;;;;;;13.18;8.07;;;21.10;99.90;;;;;;5025927;28;20490;-65
2022/05/06 14:12:01;;;;;;;12.30;7.95;;;21.20;99.90;;;;;;5022327;28;20427;-65
2022/05/06 14:14:27;;;;;;;10.60;7.50;;;21.30;99.90;;;;;;5028074;28;20462;-64
2022/05/06 14:16:53;;;;;;;11.67;7.50;;;21.80;99.90;;;;;;5025730;28;20475;-65
2022/05/06 14:19:19;;;;;;;11.37;7.40;;;21.70;99.90;;;;;;5037732;28;20476;-66
2022/05/06 14:21:46;;;;;;;10.50;7.35;;;21.40;99.90;;;;;;5035064;28;20958;-66
2022/05/06 14:24:13;;;;;;;12.10;7.50;;;21.60;99.90;;;;;;5000281;28;20427;-65
2022/05/06 14:26:40;;;;;;;10.38;7.47;;;21.70;99.90;;;;;;5036358;28;20496;-65
2022/05/06 14:29:05;;;;;;;11.02;7.82;;;21.40;99.90;;;;;;5036096;28;20438;-65
2022/05/06 14:31:31;;;;;;;12.05;7.97;;;21.50;99.90;;;;;;5034058;28;20414;-65
2022/05/06 14:33:57;;;;;;;11.75;8.15;;;21.20;99.90;;;;;;5032763;28;20430;-65
2022/05/06 14:36:23;;;;;;;10.07;8.00;;;21.10;99.90;;;;;;5035153;28;20884;-66
2022/05/06 14:38:49;;;;;;;12.00;8.45;;;21.20;99.90;;;;;;5036041;28;20439;-66
2022/05/06 14:41:15;;;;;;;11.75;8.55;;;21.10;99.90;;;;;;5031846;28;20431;-66